Tiempo atmosférico en la estación meteorológica de Pedrosillo de Los Aires, Salamanca (865 m.)



Fecha
DESCASC
Temp. máxima en grados centígrados (hora)
DESCASC
Temp. mínima en grados centígrados (hora)
DESCASC
Temp. media en grados centígrados
DESCASC
Racha de viento máxima en m/sg (hora)
DESCASC
Velocidad máxima media en intervalos de 10 minutos(hora)
DESCASC
Precipitaciones diarias en mm
DESCASC
Precipitaciones de 00:00 a 06:00 en mm
DESCASC
Precipitaciones de 06:00 a 12:00 en mm
DESCASC
Precipitaciones de 12:00 a 18:00 en mm
DESCASC
Precipitaciones de 18:00 a 24:00 en mm
DESCASC
10-11-2019 6.5 (14:00) 3.1 (00:00) 4.8 13.33 (14:00) 7.5 (13:50) 0 0 0 0 0
09-11-2019 7 (20:50) 1.6 (00:00) 4.3 13.06 (15:40) 8.33 (15:20) 9.2 0 0.8 8.4 0
08-11-2019 8.6 (14:50) 1.3 (07:10) 5 11.67 (15:10) 7.22 (15:10) 0 0 0 0 0
07-11-2019 9.4 (04:40) 2.9 (00:00) 6.1 12.78 (19:10) 8.33 (19:10) 3.4 2.2 0 0.4 0.8
06-11-2019 10.6 (13:50) 4.6 (00:00) 7.6 10.28 (23:10) 6.67 (23:10) 0.4 0 0 0 0.4
05-11-2019 11.3 (15:10) 5.5 (00:00) 8.4 13.61 (13:30) 8.06 (13:30) 0.2 0.2 0 0 0
04-11-2019 13.2 (12:40) 6.7 (00:00) 9.9 19.72 (16:40) 12.22 (14:10) 3.6 0 0 2.2 1.4
03-11-2019 12.8 (16:40) 9.5 (00:00) 11.2 15.56 (03:10) 8.61 (02:30) 2.6 1 1.6 0 0
02-11-2019 15.7 (14:00) 10.5 (00:00) 13.1 15.28 (14:10) 8.06 (14:10) 2.2 1.2 0.6 0.4 0
01-11-2019 17 (13:40) 13.2 (00:00) 15.1 12.78 (13:40) 7.5 (13:10) 4.6 0.2 0 0.8 3.6
31-10-2019 18.6 (14:50) 12.7 (08:00) 15.7 6.94 (15:00) 4.72 (15:00) 1.4 0 0 0.6 0.8
30-10-2019 15.5 (12:10) 10.2 (00:00) 12.8 9.44 (13:30) 6.11 (13:30) 0.4 0 0 0.2 0.2
29-10-2019 19.4 (15:20) 10.5 (00:00) 14.9 6.39 (13:50) 3.89 (12:40) 0.2 0 0.2 0 0
28-10-2019 16.6 (14:50) 9.4 (00:00) 13 10 (14:20) 6.39 (11:40) 0 0 0 0 0
27-10-2019 21.5 (13:50) 4.3 (00:00) 12.9 7.22 (15:50) 5 (15:50) 0 0 0 0 0
26-10-2019 22.1 (16:40) 5.6 (00:00) 13.9 6.67 (17:10) 4.17 (17:10) 0 0 0 0 0
25-10-2019 20.4 (16:00) 2.7 (00:00) 11.5 7.22 (15:30) 4.44 (15:00) 0 0 0 0 0
24-10-2019 15.6 (15:50) 5.8 (00:00) 10.7 5.83 (17:10) 3.89 (17:10) 1 0.8 0 0.2 0
23-10-2019 9 (13:50) 6.2 (00:00) 7.6 8.33 (13:20) 4.72 (13:40) 16.2 6.4 6 2.4 1.4
22-10-2019 10.6 (16:20) -0.8 (05:30) 4.9 11.94 (17:00) 6.67 (17:10) 3.6 0 0 0 3.6
21-10-2019 14.2 (15:00) -0.6 (-00:0) 6.8 8.61 (17:10) 5.28 (17:20) 6 0 0 3.8 2.2
20-10-2019 10.5 (18:10) 5.4 (00:00) 8 9.72 (01:10) 6.39 (01:00) 0.6 0 0.2 0.4 0
19-10-2019 14.4 (13:50) 8.8 (00:00) 11.6 17.5 (16:20) 11.67 (16:30) 2.2 0 0 0.4 1.8
18-10-2019 17.4 (15:10) 11.2 (00:00) 14.3 12.22 (03:10) 7.5 (03:10) 0.6 0.6 0 0 0
17-10-2019 16.5 (15:20) 10.7 (00:00) 13.6 13.89 (04:30) 9.44 (04:30) 4 1 1.8 0 1.2
16-10-2019 15.4 (16:10) 5.8 (00:00) 10.6 14.44 (14:10) 8.33 (14:00) 0 0 0 0 0
15-10-2019 14.2 (15:30) 2.9 (00:00) 8.5 8.61 (14:50) 4.72 (19:00) 0 0 0 0 0
14-10-2019 13.9 (07:30) 5.6 (00:00) 9.7 21.39 (13:10) 11.11 (12:50) 10.2 0 1.6 8.6 0

Gráficas

Temp. máximas Temp. mínimas Temp. medias Precipitaciones Rachas de viento máximas Velocidades máximas media en intervalos de 10 minutos

Datos horarios

Fecha y hora oficial Temperatura (ºC) Velocidad del viento (km/h) Dirección del viento Racha (km/h) Dirección de racha Precipitación (mm) Presión (hPa) Tendencia (hPa) Humedad (%)
2019-11-12 23:00:00 7.8 21 Sudoeste 33 Sudoeste 0.6 -- -- 97
2019-11-12 22:00:00 8.3 17 Sudoeste 27 Sudoeste 0 -- -- 93
2019-11-12 21:00:00 8.8 17 Sudoeste 30 Sudoeste 0 -- -- 88
2019-11-12 20:00:00 8.7 12 Sudoeste 24 Sudoeste 0 -- -- 87
2019-11-12 19:00:00 8.4 17 Sudoeste 39 Sudoeste 0 -- -- 89
2019-11-12 18:00:00 9.2 14 Sudoeste 26 Sudoeste 0 -- -- 79
2019-11-12 17:00:00 9.4 15 Sudoeste 22 Sudoeste 0 -- -- 74
2019-11-12 16:00:00 9.4 13 Oeste 23 Oeste 0 -- -- 74
2019-11-12 15:00:00 9.6 12 Oeste 26 Oeste 0 -- -- 71
2019-11-12 14:00:00 9.9 15 Noroeste 25 Noroeste 0 -- -- 66
2019-11-12 13:00:00 9.7 9 Oeste 19 Sur 0 -- -- 68
2019-11-12 12:00:00 7.8 9 Sudoeste 15 Sudoeste 0 -- -- 71
2019-11-12 11:00:00 6.1 5 Oeste 9 Sudoeste 0 -- -- 83
2019-11-12 10:00:00 3.9 6 Sudoeste 9 Sudoeste 0 -- -- 93
2019-11-12 09:00:00 1.7 5 Sudoeste 10 Sudoeste 0 -- -- 98
2019-11-12 08:00:00 0.9 4 Oeste 8 Sudoeste 0 -- -- 97
2019-11-12 07:00:00 0.7 4 Sudoeste 8 Noroeste 0 -- -- 98
2019-11-12 06:00:00 0.4 5 Noroeste 8 Sudoeste 0 -- -- 97
2019-11-12 05:00:00 0.7 3 Noroeste 9 Sudoeste 0 -- -- 96
2019-11-12 04:00:00 0.6 3 Oeste 9 Sudoeste 0 -- -- 96
2019-11-12 03:00:00 1.3 6 Noroeste 9 Oeste 0 -- -- 95
2019-11-12 02:00:00 1.4 6 Oeste 8 Oeste 0 -- -- 94
2019-11-12 01:00:00 2 4 Sur 6 Sur 0 -- -- 92
2019-11-12 00:00:00 3.8 3 Este 7 Nordeste 0 -- -- 89
2019-11-11 23:00:00 4.8 3 Norte 10 Norte 0 -- -- 84
2019-11-11 22:00:00 5.3 3 Sur 17 Norte 0 -- -- 82
2019-11-11 21:00:00 6.7 4 Norte 14 Nordeste 0 -- -- 79
2019-11-11 20:00:00 8.9 13 Nordeste 19 Norte 0 -- -- 76
2019-11-11 19:00:00 9.7 10 Norte 18 Noroeste 0 -- -- 86
2019-11-11 18:00:00 10.7 12 Noroeste 23 Noroeste 0 -- -- 84
2019-11-11 17:00:00 11.8 9 Noroeste 22 Noroeste 0 -- -- 79
2019-11-11 16:00:00 11.9 13 Noroeste 30 Noroeste 0 -- -- 81
2019-11-11 15:00:00 11.9 17 Noroeste 33 Noroeste 0 -- -- 84
2019-11-11 14:00:00 11.3 21 Noroeste 34 Noroeste 0 -- -- 89
2019-11-11 13:00:00 10.2 13 Oeste 23 Oeste 0 -- -- 98
2019-11-11 12:00:00 9.5 12 Oeste 22 Oeste 0 -- -- 99
2019-11-11 11:00:00 8.6 12 Sudoeste 18 Sudoeste 0 -- -- 99
2019-11-11 10:00:00 7.6 5 Sudoeste 22 Sudoeste 0 -- -- 99
2019-11-11 09:00:00 7 11 Sudoeste 19 Sudoeste 0 -- -- 99
2019-11-11 08:00:00 5.9 8 Sudoeste 17 Sudoeste 0.2 -- -- 98
2019-11-11 07:00:00 5.8 8 Sudoeste 14 Sudoeste 0 -- -- 97
2019-11-11 06:00:00 5.7 9 Sudoeste 14 Sudoeste 0 -- -- 95
2019-11-11 05:00:00 5.5 8 Sudoeste 13 Sudoeste 0 -- -- 95
2019-11-11 04:00:00 5.4 8 Sudoeste 14 Sur 0 -- -- 95
2019-11-11 03:00:00 5.2 6 Sur 12 Sur 0 -- -- 94
2019-11-11 02:00:00 5.3 7 Oeste 13 Oeste 0 -- -- 93
2019-11-11 01:00:00 5.1 9 Oeste 18 Oeste 0 -- -- 93
2019-11-11 00:00:00 4.8 12 Oeste 25 Noroeste 0 -- -- 92
2019-11-10 23:00:00 4.8 13 Noroeste 21 Noroeste 0 -- -- 91
2019-11-10 22:00:00 4.8 12 Oeste 22 Oeste 0 -- -- 91
2019-11-10 21:00:00 4.9 8 Oeste 25 Noroeste 0 -- -- 91
2019-11-10 20:00:00 5.1 10 Oeste 26 Oeste 0 -- -- 88
2019-11-10 19:00:00 5.3 17 Oeste 27 Oeste 0 -- -- 86
2019-11-10 18:00:00 5.4 13 Oeste 34 Oeste 0 -- -- 87
2019-11-10 17:00:00 5.6 19 Oeste 31 Noroeste 0 -- -- 86
2019-11-10 16:00:00 5.9 16 Oeste 39 Noroeste 0 -- -- 85
2019-11-10 15:00:00 6 23 Oeste 40 Oeste 0 -- -- 84
2019-11-10 14:00:00 6.5 27 Noroeste 48 Noroeste 0 -- -- 78
2019-11-10 13:00:00 5.8 23 Noroeste 40 Oeste 0 -- -- 79
2019-11-10 12:00:00 5.5 19 Oeste 34 Oeste 0 -- -- 79
2019-11-10 11:00:00 5.3 20 Noroeste 40 Oeste 0 -- -- 82
2019-11-10 10:00:00 4.6 21 Oeste 31 Oeste 0 -- -- 84
2019-11-10 09:00:00 3.8 16 Noroeste 30 Oeste 0 -- -- 89
2019-11-10 08:00:00 3.4 16 Noroeste 32 Noroeste 0 -- -- 89
2019-11-10 07:00:00 3.1 19 Noroeste 32 Noroeste 0 -- -- 88
2019-11-10 06:00:00 3.3 13 Noroeste 27 Oeste 0 -- -- 88
2019-11-10 05:00:00 3.4 10 Oeste 21 Oeste 0 -- -- 87
2019-11-10 04:00:00 4.1 15 Noroeste 32 Noroeste 0 -- -- 84
2019-11-10 03:00:00 4.9 19 Noroeste 40 Noroeste 0 -- -- 82
2019-11-10 02:00:00 5.6 20 Noroeste 33 Oeste 0 -- -- 85
2019-11-10 01:00:00 6.1 17 Noroeste 30 Noroeste 0 -- -- 86
2019-11-10 00:00:00 6.4 12 Noroeste 25 Noroeste 0 -- -- 87
2019-11-09 23:00:00 6 9 Oeste 17 Noroeste 0 -- -- 89
2019-11-09 22:00:00 6.5 9 Oeste 20 Noroeste 0 -- -- 89
2019-11-09 21:00:00 6.9 11 Sudoeste 19 Sudoeste 0 -- -- 95
2019-11-09 20:00:00 6.6 9 Sudoeste 17 Sudoeste 0 -- -- 98
2019-11-09 19:00:00 6.3 12 Sudoeste 23 Sudoeste 0 -- -- 98
2019-11-09 18:00:00 6 13 Sudoeste 32 Sudoeste 0 -- -- 98
2019-11-09 17:00:00 5.8 20 Sudoeste 33 Oeste 0 -- -- 97
2019-11-09 16:00:00 6 27 Sudoeste 47 Sudoeste 1.2 -- -- 95
2019-11-09 15:00:00 5.4 21 Sudoeste 35 Sudoeste 3.8 -- -- 97
2019-11-09 14:00:00 5.9 16 Sudoeste 28 Sudoeste 2.8 -- -- 96
2019-11-09 13:00:00 6.3 15 Sudoeste 26 Sudoeste 0.6 -- -- 96
2019-11-09 12:00:00 6.5 13 Sudoeste 22 Sudoeste 0 -- -- 90
2019-11-09 11:00:00 5.6 13 Sur 23 Sudoeste 0.4 -- -- 92
2019-11-09 10:00:00 4.6 9 Sur 19 Sudoeste 0.4 -- -- 92
2019-11-09 09:00:00 3.9 13 Sudoeste 21 Sudoeste 0 -- -- 91
2019-11-09 08:00:00 2.3 8 Sudoeste 17 Sudoeste 0 -- -- 92
2019-11-09 07:00:00 2.5 9 Sudoeste 17 Sur 0 -- -- 92
2019-11-09 06:00:00 2.2 8 Sur 17 Sudoeste 0 -- -- 94
2019-11-09 05:00:00 2 9 Sudoeste 14 Sur 0 -- -- 96
2019-11-09 04:00:00 1.7 6 Sudoeste 17 Sudoeste 0 -- -- 96
2019-11-09 03:00:00 1.7 8 Sudoeste 18 Sur 0 -- -- 95
2019-11-09 02:00:00 2 8 Sudoeste 15 Sudoeste 0 -- -- 95
2019-11-09 01:00:00 1.6 8 Sudoeste 13 Sudoeste 0 -- -- 95
2019-11-09 00:00:00 1.7 7 Sur 14 Sudoeste 0 -- -- 95
2019-11-08 23:00:00 2.1 5 Sudoeste 10 Sudoeste 0 -- -- 94
2019-11-08 22:00:00 2.5 8 Sudoeste 12 Oeste 0 -- -- 91
2019-11-08 21:00:00 3.1 9 Sudoeste 11 Sudoeste 0 -- -- 89
2019-11-08 20:00:00 4.2 7 Sudoeste 14 Noroeste 0 -- -- 83
2019-11-08 19:00:00 4.9 5 Oeste 27 Oeste 0 -- -- 79
2019-11-08 18:00:00 6.8 18 Oeste 33 Noroeste 0 -- -- 70
2019-11-08 17:00:00 7.8 21 Noroeste 40 Noroeste 0 -- -- 66
2019-11-08 16:00:00 8.1 22 Noroeste 42 Oeste 0 -- -- 65
2019-11-08 15:00:00 8.5 24 Noroeste 40 Noroeste 0 -- -- 66
2019-11-08 14:00:00 8.3 19 Noroeste 29 Oeste 0 -- -- 66
2019-11-08 13:00:00 7.3 14 Noroeste 28 Oeste 0 -- -- 71
2019-11-08 12:00:00 5.9 17 Oeste 35 Oeste 0 -- -- 80
2019-11-08 11:00:00 4.6 18 Oeste 37 Noroeste 0 -- -- 80
2019-11-08 10:00:00 4 15 Oeste 31 Oeste 0 -- -- 84
2019-11-08 09:00:00 2.4 13 Oeste 22 Oeste 0 -- -- 89
2019-11-08 08:00:00 2 11 Oeste 19 Sudoeste 0 -- -- 90
2019-11-08 07:00:00 1.4 6 Sudoeste 17 Oeste 0 -- -- 89
2019-11-08 06:00:00 1.9 9 Oeste 27 Oeste 0 -- -- 86
2019-11-08 05:00:00 2.6 13 Oeste 28 Oeste 0 -- -- 86
2019-11-08 04:00:00 2.5 9 Oeste 30 Sudoeste 0 -- -- 88
2019-11-08 03:00:00 2.9 12 Sudoeste 19 Sur 0 -- -- 89
2019-11-08 02:00:00 2.5 13 Oeste 32 Oeste 0 -- -- 88
2019-11-08 01:00:00 3 19 Oeste 37 Oeste 0 -- -- 89
2019-11-08 00:00:00 3 18 Oeste 41 Oeste 0 -- -- 89
2019-11-07 23:00:00 2.9 23 Oeste 36 Oeste 0 -- -- 90
2019-11-07 22:00:00 3.3 26 Oeste 42 Noroeste 0 -- -- 89
2019-11-07 21:00:00 3.3 23 Oeste 39 Oeste 0 -- -- 90
2019-11-07 20:00:00 3.2 17 Oeste 46 Noroeste 0.8 -- -- 93
2019-11-07 19:00:00 5.3 22 Noroeste 40 Oeste 0 -- -- 84
2019-11-07 18:00:00 5.8 22 Oeste 40 Oeste 0 -- -- 80
2019-11-07 17:00:00 6.1 21 Oeste 44 Oeste 0 -- -- 81
2019-11-07 16:00:00 5.3 14 Oeste 45 Noroeste 0.2 -- -- 88
2019-11-07 15:00:00 6.9 23 Noroeste 39 Noroeste 0 -- -- 77
2019-11-07 14:00:00 8 16 Oeste 41 Sudoeste 0 -- -- 65
2019-11-07 13:00:00 8.8 22 Oeste 35 Oeste 0.2 -- -- 64
2019-11-07 12:00:00 8 14 Oeste 24 Oeste 0 -- -- 75
2019-11-07 11:00:00 6.3 10 Oeste 18 Oeste 0 -- -- 82
2019-11-07 10:00:00 5.9 9 Oeste 26 Oeste 0 -- -- 82
2019-11-07 09:00:00 6 11 Oeste 22 Oeste 0 -- -- 84
2019-11-07 08:00:00 5.3 10 Oeste 35 Oeste 0 -- -- 85
2019-11-07 07:00:00 7.1 19 Noroeste 30 Noroeste 0 -- -- 88
2019-11-07 06:00:00 8.6 12 Oeste 28 Oeste 0 -- -- 92
2019-11-07 05:00:00 9.3 12 Oeste 26 Noroeste 0 -- -- 94
2019-11-07 04:00:00 9 15 Sudoeste 31 Sudoeste 1.2 -- -- 98
2019-11-07 03:00:00 8.9 15 Sudoeste 30 Sudoeste 0.8 -- -- 97
2019-11-07 02:00:00 8.9 23 Sudoeste 37 Sudoeste 0.2 -- -- 97
2019-11-07 01:00:00 8.7 22 Sudoeste 33 Sudoeste 0 -- -- 97
2019-11-07 00:00:00 8.5 21 Sudoeste 37 Sudoeste 0.4 -- -- 97
2019-11-06 23:00:00 8.2 23 Sudoeste 35 Sudoeste 0 -- -- 96
2019-11-06 22:00:00 8.2 18 Sudoeste 29 Sudoeste 0 -- -- 94
2019-11-06 21:00:00 8.2 16 Sudoeste 27 Sudoeste 0 -- -- 92
2019-11-06 20:00:00 8.9 19 Sudoeste 28 Sudoeste 0 -- -- 85
2019-11-06 19:00:00 9 21 Sudoeste 34 Sudoeste 0 -- -- 84
2019-11-06 18:00:00 9.6 14 Sudoeste 23 Sudoeste 0 -- -- 77
2019-11-06 17:00:00 9.8 10 Sudoeste 23 Sudoeste 0 -- -- 75
2019-11-06 16:00:00 9.8 10 Sudoeste 26 Oeste 0 -- -- 74
2019-11-06 15:00:00 9.8 14 Oeste 22 Sudoeste 0 -- -- 75
2019-11-06 14:00:00 10.3 11 Oeste 21 Oeste 0 -- -- 68
2019-11-06 13:00:00 9.7 13 Noroeste 21 Noroeste 0 -- -- 73
2019-11-06 12:00:00 9.1 8 Noroeste 16 Oeste 0 -- -- 78
2019-11-06 11:00:00 7.9 9 Noroeste 18 Noroeste 0 -- -- 81
2019-11-06 10:00:00 8 9 Sudoeste 15 Oeste 0 -- -- 85
2019-11-06 09:00:00 5.5 6 Sudoeste 14 Sudoeste 0 -- -- 95
2019-11-06 08:00:00 5.3 8 Sudoeste 12 Sudoeste 0 -- -- 94
2019-11-06 07:00:00 5.5 6 Sudoeste 14 Oeste 0 -- -- 94
2019-11-06 06:00:00 5 5 Sudoeste 12 Sudoeste 0 -- -- 96
2019-11-06 05:00:00 5.1 7 Sudoeste 23 Sudoeste 0 -- -- 92
2019-11-06 04:00:00 6 8 Oeste 15 Oeste 0 -- -- 94
2019-11-06 03:00:00 5.3 10 Oeste 21 Oeste 0 -- -- 93
2019-11-06 02:00:00 4.8 7 Sudoeste 14 Sudoeste 0 -- -- 93
2019-11-06 01:00:00 5.7 5 Sur 15 Sur 0 -- -- 93
2019-11-06 00:00:00 5.5 8 Sur 15 Oeste 0 -- -- 93
2019-11-05 23:00:00 6.1 6 Oeste 17 Oeste 0 -- -- 92
2019-11-05 22:00:00 6.4 9 Oeste 14 Oeste 0 -- -- 92
2019-11-05 21:00:00 6.8 8 Oeste 19 Oeste 0 -- -- 91
2019-11-05 20:00:00 7.1 8 Oeste 14 Oeste 0 -- -- 90
2019-11-05 19:00:00 7.9 9 Sudoeste 22 Oeste 0 -- -- 85
2019-11-05 18:00:00 9.3 17 Oeste 32 Oeste 0 -- -- 82
2019-11-05 17:00:00 9.9 15 Oeste 43 Noroeste 0 -- -- 82
2019-11-05 16:00:00 10.5 21 Oeste 42 Oeste 0 -- -- 74
2019-11-05 15:00:00 11.2 24 Oeste 40 Oeste 0 -- -- 71
2019-11-05 14:00:00 11.2 22 Oeste 49 Oeste 0 -- -- 73
2019-11-05 13:00:00 10.6 22 Oeste 41 Oeste 0 -- -- 75
2019-11-05 12:00:00 10.3 21 Oeste 40 Oeste 0 -- -- 79
2019-11-05 11:00:00 8.6 20 Oeste 40 Oeste 0 -- -- 84
2019-11-05 10:00:00 7.7 18 Oeste 31 Oeste 0 -- -- 90
2019-11-05 09:00:00 7.1 19 Sudoeste 39 Oeste 0 -- -- 89
2019-11-05 08:00:00 6.5 19 Oeste 31 Sudoeste 0 -- -- 88
2019-11-05 07:00:00 6.5 20 Sudoeste 32 Sudoeste 0 -- -- 87
2019-11-05 06:00:00 6.2 17 Sudoeste 31 Sudoeste 0.2 -- -- 88
2019-11-05 05:00:00 6.1 19 Oeste 32 Oeste 0 -- -- 87
2019-11-05 04:00:00 6.3 17 Sudoeste 35 Sudoeste 0 -- -- 88
2019-11-05 03:00:00 6.1 22 Sudoeste 38 Oeste 0 -- -- 89
2019-11-05 02:00:00 6.2 22 Sudoeste 40 Sudoeste 0 -- -- 87
2019-11-05 01:00:00 6.6 13 Sudoeste 29 Sudoeste 0 -- -- 89
2019-11-05 00:00:00 6.8 13 Sudoeste 31 Oeste 0 -- -- 92
2019-11-04 23:00:00 6.7 15 Oeste 38 Oeste 0.2 -- -- 91
2019-11-04 22:00:00 7.4 21 Oeste 42 Oeste 0 -- -- 89
2019-11-04 21:00:00 8 18 Oeste 36 Oeste 0.8 -- -- 92
2019-11-04 20:00:00 9 21 Oeste 52 Oeste 0.4 -- -- 90
2019-11-04 19:00:00 9.9 24 Oeste 43 Oeste 0 -- -- 90
2019-11-04 18:00:00 9.8 28 Oeste 60 Oeste 0 -- -- 88
2019-11-04 17:00:00 10.6 35 Oeste 71 Oeste 0.4 -- -- 89
2019-11-04 16:00:00 11.4 32 Oeste 64 Sudoeste 1.6 -- -- 91
2019-11-04 15:00:00 12.5 41 Sudoeste 64 Sudoeste 0 -- -- 91
2019-11-04 14:00:00 13 39 Sudoeste 64 Sudoeste 0 -- -- 88
2019-11-04 13:00:00 13.1 39 Sudoeste 60 Sudoeste 0.2 -- -- 88
2019-11-04 12:00:00 11.7 36 Sudoeste 57 Sudoeste 0 -- -- 89
2019-11-04 11:00:00 11.5 32 Sudoeste 63 Sudoeste 0 -- -- 89
2019-11-04 10:00:00 11.3 35 Sudoeste 55 Sudoeste 0 -- -- 88
2019-11-04 09:00:00 11 29 Sudoeste 45 Sudoeste 0 -- -- 91
2019-11-04 08:00:00 10.2 25 Sudoeste 42 Sudoeste 0 -- -- 94
2019-11-04 07:00:00 10.4 18 Sudoeste 47 Sudoeste 0 -- -- 94
2019-11-04 06:00:00 10.8 26 Sudoeste 41 Sudoeste 0 -- -- 92
2019-11-04 05:00:00 10.8 23 Sudoeste 39 Sudoeste 0 -- -- 93
2019-11-04 04:00:00 10.9 22 Sudoeste 43 Sudoeste 0 -- -- 95
2019-11-04 03:00:00 11 19 Sudoeste 31 Sudoeste 0 -- -- 96
2019-11-04 02:00:00 11 21 Sudoeste 37 Sudoeste 0 -- -- 96
2019-11-04 01:00:00 10.8 25 Sudoeste 46 Sudoeste 0 -- -- 96
2019-11-04 00:00:00 11.1 21 Sudoeste 37 Sudoeste 0 -- -- 92
2019-11-03 23:00:00 11.2 23 Sudoeste 35 Sudoeste 0 -- -- 90
2019-11-03 22:00:00 11 17 Sudoeste 30 Sudoeste 0 -- -- 91
2019-11-03 21:00:00 10.4 17 Sudoeste 31 Sudoeste 0 -- -- 94
2019-11-03 20:00:00 10.8 21 Sudoeste 32 Sudoeste 0 -- -- 89
2019-11-03 19:00:00 11.6 15 Sudoeste 29 Sudoeste 0 -- -- 79
2019-11-03 18:00:00 11.8 16 Sudoeste 30 Oeste 0 -- -- 77
2019-11-03 17:00:00 12.5 19 Oeste 31 Oeste 0 -- -- 73
2019-11-03 16:00:00 11.9 17 Sudoeste 36 Oeste 0 -- -- 73
2019-11-03 15:00:00 11.8 21 Oeste 36 Sudoeste 0 -- -- 68
2019-11-03 14:00:00 11.8 18 Oeste 37 Oeste 0 -- -- 71
2019-11-03 13:00:00 10.5 21 Oeste 48 Oeste 0 -- -- 74
2019-11-03 12:00:00 10.7 24 Oeste 39 Oeste 0 -- -- 75
2019-11-03 11:00:00 9.8 15 Sudoeste 37 Oeste 0 -- -- 79
2019-11-03 10:00:00 9.9 21 Oeste 48 Oeste 0 -- -- 83
2019-11-03 09:00:00 9.5 23 Oeste 46 Oeste 0.2 -- -- 90
2019-11-03 08:00:00 10.6 24 Noroeste 45 Oeste 0.6 -- -- 93
2019-11-03 07:00:00 11.4 20 Oeste 42 Oeste 0.8 -- -- 95
2019-11-03 06:00:00 10.8 22 Sudoeste 52 Sudoeste 0.4 -- -- 96
2019-11-03 05:00:00 10.7 30 Sudoeste 54 Sudoeste 0.2 -- -- 96
2019-11-03 04:00:00 10.4 27 Sudoeste 56 Sudoeste 0.2 -- -- 96
2019-11-03 03:00:00 10.3 28 Sudoeste 48 Sudoeste 0.2 -- -- 95
2019-11-03 02:00:00 10.2 26 Sudoeste 44 Sudoeste 0 -- -- 94
2019-11-03 01:00:00 10.2 25 Sudoeste 46 Sudoeste 0 -- -- 95
2019-11-03 00:00:00 10.5 25 Sudoeste 39 Sudoeste 0 -- -- 90
2019-11-02 23:00:00 10.6 20 Sudoeste 35 Sudoeste 0 -- -- 87
2019-11-02 22:00:00 11.5 20 Sudoeste 31 Sudoeste 0 -- -- 86
2019-11-02 21:00:00 11.7 15 Sudoeste 27 Sur 0 -- -- 82
2019-11-02 20:00:00 12.2 17 Sudoeste 40 Oeste 0 -- -- 80
2019-11-02 19:00:00 12.7 24 Sudoeste 38 Oeste 0 -- -- 77
2019-11-02 18:00:00 12.8 24 Oeste 48 Oeste 0.2 -- -- 80
2019-11-02 17:00:00 12.9 19 Oeste 46 Sudoeste 0 -- -- 89
2019-11-02 16:00:00 14.5 23 Sudoeste 38 Sudoeste 0 -- -- 88
2019-11-02 15:00:00 14.5 26 Sudoeste 55 Sudoeste 0 -- -- 87
2019-11-02 14:00:00 15.7 27 Sudoeste 42 Sudoeste 0 -- -- 83
2019-11-02 13:00:00 14.9 23 Sudoeste 35 Sudoeste 0.2 -- -- 88
2019-11-02 12:00:00 14.9 20 Sudoeste 37 Oeste 0 -- -- 86
2019-11-02 11:00:00 14.4 18 Sudoeste 27 Sudoeste 0 -- -- 92
2019-11-02 10:00:00 13.7 17 Sudoeste 31 Sudoeste 0 -- -- 95
2019-11-02 09:00:00 13 16 Sudoeste 32 Sudoeste 0.2 -- -- 97
2019-11-02 08:00:00 12.8 23 Sudoeste 35 Sudoeste 0.4 -- -- 96
2019-11-02 07:00:00 13 22 Sudoeste 36 Sudoeste 0 -- -- 95
2019-11-02 06:00:00 13.2 21 Sudoeste 34 Oeste 0 -- -- 95
2019-11-02 05:00:00 13.1 22 Sudoeste 34 Sudoeste 0 -- -- 95
2019-11-02 04:00:00 13 19 Sudoeste 41 Sudoeste 0 -- -- 96
2019-11-02 03:00:00 13.1 20 Sudoeste 34 Sudoeste 0 -- -- 96
2019-11-02 02:00:00 13.5 20 Sudoeste 30 Sudoeste 0.4 -- -- 97
2019-11-02 01:00:00 13.6 19 Sudoeste 29 Sudoeste 0.8 -- -- 97
2019-11-02 00:00:00 13.5 14 Sudoeste 27 Sudoeste 0.4 -- -- 97
2019-11-01 23:00:00 13.2 15 Sudoeste 23 Sudoeste 1.6 -- -- 97
2019-11-01 22:00:00 13.5 14 Sudoeste 19 Sudoeste 1.4 -- -- 96
2019-11-01 21:00:00 13.6 10 Sudoeste 33 Sudoeste 0 -- -- 92
2019-11-01 20:00:00 14.5 14 Sudoeste 36 Sudoeste 0 -- -- 93
2019-11-01 19:00:00 14.8 19 Sudoeste 32 Oeste 0.2 -- -- 92
2019-11-01 18:00:00 15.8 16 Sudoeste 42 Sudoeste 0.2 -- -- 91
2019-11-01 17:00:00 16.7 15 Sudoeste 34 Sudoeste 0 -- -- 86
2019-11-01 16:00:00 16.7 25 Sudoeste 37 Sudoeste 0 -- -- 87
2019-11-01 15:00:00 16.2 24 Sudoeste 41 Sudoeste 0.6 -- -- 93
2019-11-01 14:00:00 16.7 25 Sudoeste 46 Sudoeste 0 -- -- 87
2019-11-01 13:00:00 16.3 26 Sudoeste 38 Sudoeste 0 -- -- 89
2019-11-01 12:00:00 16.2 26 Sudoeste 39 Sudoeste 0 -- -- 89
2019-11-01 11:00:00 16 23 Sudoeste 38 Sudoeste 0 -- -- 90
2019-11-01 10:00:00 16.1 15 Sudoeste 27 Sudoeste 0 -- -- 91
2019-11-01 09:00:00 15 12 Sudoeste 18 Sudoeste 0 -- -- 94
2019-11-01 08:00:00 14.4 12 Sudoeste 16 Sudoeste 0 -- -- 95
2019-11-01 07:00:00 14.4 8 Sudoeste 21 Sudoeste 0 -- -- 94
2019-11-01 06:00:00 14.9 10 Sudoeste 23 Oeste 0 -- -- 92
2019-11-01 05:00:00 15 11 Sudoeste 26 Oeste 0 -- -- 94
2019-11-01 04:00:00 15 14 Sudoeste 23 Sudoeste 0 -- -- 95
2019-11-01 03:00:00 14.9 10 Sudoeste 18 Sudoeste 0 -- -- 95
2019-11-01 02:00:00 14.8 12 Sudoeste 18 Sudoeste 0.2 -- -- 96
2019-11-01 01:00:00 14.9 10 Sudoeste 17 Sudoeste 0 -- -- 96
2019-11-01 00:00:00 15.1 11 Sudoeste 19 Sudoeste 0 -- -- 96
2019-10-31 23:00:00 15 8 Sudoeste 14 Sudoeste 0 -- -- 97
2019-10-31 22:00:00 15.1 9 Sudoeste 16 Sudoeste 0 -- -- 97
2019-10-31 21:00:00 14.9 8 Sudoeste 17 Sudoeste 0.4 -- -- 96
2019-10-31 20:00:00 14.9 11 Sudoeste 18 Sudoeste 0 -- -- 95
2019-10-31 19:00:00 15.2 8 Sudoeste 13 Oeste 0.4 -- -- 94
2019-10-31 18:00:00 15.8 0 Calma 10 Sudoeste 0.2 -- -- 90
2019-10-31 17:00:00 16.4 8 Sudoeste 20 Sudoeste 0.4 -- -- 80
2019-10-31 16:00:00 16.7 13 Oeste 24 Oeste 0 -- -- 75
2019-10-31 15:00:00 18.5 17 Oeste 25 Oeste 0 -- -- 64
2019-10-31 14:00:00 18.5 12 Oeste 22 Oeste 0 -- -- 64
2019-10-31 13:00:00 18.4 11 Sudoeste 19 Sudoeste 0 -- -- 73
2019-10-31 12:00:00 16.3 12 Sudoeste 19 Sudoeste 0 -- -- 79
2019-10-31 11:00:00 15.3 10 Sudoeste 14 Sudoeste 0 -- -- 85
2019-10-31 10:00:00 13.9 7 Sudoeste 12 Sudoeste 0 -- -- 92
2019-10-31 09:00:00 12.9 8 Sudoeste 13 Sur 0 -- -- 94
2019-10-31 08:00:00 12.7 8 Sudoeste 22 Sudoeste 0 -- -- 94
2019-10-31 07:00:00 13.1 9 Sudoeste 14 Sudoeste 0 -- -- 96
2019-10-31 06:00:00 12.9 8 Sudoeste 14 Oeste 0 -- -- 96
2019-10-31 05:00:00 13.4 9 Sudoeste 17 Sudoeste 0 -- -- 97
2019-10-31 04:00:00 13.4 4 Sudoeste 12 Sur 0 -- -- 97
2019-10-31 03:00:00 13.7 7 Sudoeste 15 Sudoeste 0 -- -- 96
2019-10-31 02:00:00 14.1 10 Sudoeste 19 Sudoeste 0 -- -- 95
2019-10-31 01:00:00 14 9 Sudoeste 21 Sudoeste 0 -- -- 97
2019-10-31 00:00:00 14.1 12 Sudoeste 22 Sudoeste 0 -- -- 97
2019-10-30 23:00:00 14.1 12 Sudoeste 19 Sudoeste 0 -- -- 97
2019-10-30 22:00:00 14 14 Sudoeste 23 Sudoeste 0.2 -- -- 97
2019-10-30 21:00:00 13.9 15 Sudoeste 34 Sudoeste 0 -- -- 97
2019-10-30 20:00:00 13.9 19 Sudoeste 33 Sudoeste 0 -- -- 96
2019-10-30 19:00:00 13.6 15 Sudoeste 26 Sudoeste 0 -- -- 95
2019-10-30 18:00:00 13.5 15 Sudoeste 26 Sudoeste 0.2 -- -- 93
2019-10-30 17:00:00 14.3 16 Sudoeste 31 Sudoeste 0 -- -- 88
2019-10-30 16:00:00 14.4 14 Sudoeste 27 Sudoeste 0 -- -- 88
2019-10-30 15:00:00 13.6 13 Sudoeste 33 Sudoeste 0 -- -- 92
2019-10-30 14:00:00 14.5 16 Sudoeste 34 Sudoeste 0 -- -- 88
2019-10-30 13:00:00 15.4 18 Sudoeste 27 Sudoeste 0 -- -- 82
2019-10-30 12:00:00 15.2 11 Sudoeste 30 Sudoeste 0 -- -- 84
2019-10-30 11:00:00 14.7 16 Sudoeste 23 Sudoeste 0 -- -- 88
2019-10-30 10:00:00 12.7 7 Sudoeste 11 Oeste 0 -- -- 90
2019-10-30 09:00:00 11.2 6 Oeste 8 Oeste 0 -- -- 92
2019-10-30 08:00:00 10.6 4 Sur 6 Sudeste 0 -- -- 94
2019-10-30 07:00:00 10.2 6 Oeste 8 Oeste 0 -- -- 93
2019-10-30 06:00:00 10.7 3 Sudoeste 9 Oeste 0 -- -- 90
2019-10-30 05:00:00 11.1 3 Sudoeste 9 Sur 0 -- -- 91
2019-10-30 04:00:00 11 6 Sudoeste 9 Sudoeste 0 -- -- 91
2019-10-30 03:00:00 10.7 6 Sudoeste 10 Sudoeste 0 -- -- 92
2019-10-30 02:00:00 11 5 Oeste 7 Oeste 0 -- -- 92
2019-10-30 01:00:00 11.3 3 Nordeste 5 Nordeste 0 -- -- 91
2019-10-30 00:00:00 12 5 Sur 11 Sudoeste 0 -- -- 90
2019-10-29 23:00:00 12.5 7 Sudoeste 12 Oeste 0 -- -- 89
2019-10-29 22:00:00 13.5 3 Sudeste 8 Sudoeste 0 -- -- 85
2019-10-29 21:00:00 13.8 5 Sudoeste 9 Sudoeste 0 -- -- 84
2019-10-29 20:00:00 14.3 5 Sudoeste 19 Sudoeste 0 -- -- 82
2019-10-29 19:00:00 15.5 12 Sudoeste 18 Oeste 0 -- -- 77
2019-10-29 18:00:00 16.9 10 Sudoeste 17 Sudoeste 0 -- -- 66
2019-10-29 17:00:00 17.7 4 Noroeste 14 Sudoeste 0 -- -- 59
2019-10-29 16:00:00 18.5 8 Noroeste 20 Oeste 0 -- -- 54
2019-10-29 15:00:00 18.6 5 Noroeste 18 Oeste 0 -- -- 54
2019-10-29 14:00:00 18.1 10 Oeste 23 Oeste 0 -- -- 56
2019-10-29 13:00:00 17.5 13 Sudoeste 21 Sudoeste 0 -- -- 59
2019-10-29 12:00:00 16.6 8 Oeste 18 Sur 0 -- -- 64
2019-10-29 11:00:00 15.3 6 Sur 15 Sudoeste 0 -- -- 82
2019-10-29 10:00:00 13 8 Sudoeste 12 Sudoeste 0 -- -- 94
2019-10-29 09:00:00 11.7 7 Sudoeste 12 Sudoeste 0 -- -- 97
2019-10-29 08:00:00 11.7 5 Sudoeste 8 Sudoeste 0 -- -- 96
2019-10-29 07:00:00 11.8 3 Sudoeste 11 Sudoeste 0.2 -- -- 96
2019-10-29 06:00:00 11.6 4 Sudoeste 8 Sudoeste 0 -- -- 94
2019-10-29 05:00:00 11.6 5 Sudoeste 10 Sudoeste 0 -- -- 95
2019-10-29 04:00:00 11 6 Sudoeste 10 Sudoeste 0 -- -- 96
2019-10-29 03:00:00 10.7 6 Sudoeste 9 Sudoeste 0 -- -- 96
2019-10-29 02:00:00 10.6 6 Oeste 8 Sudoeste 0 -- -- 96
2019-10-29 01:00:00 10.6 9 Oeste 12 Oeste 0 -- -- 96
2019-10-29 00:00:00 10.6 5 Sudoeste 7 Sudoeste 0 -- -- 95
2019-10-28 23:00:00 10.5 5 Oeste 11 Oeste 0 -- -- 95
2019-10-28 22:00:00 10.2 8 Sudoeste 12 Sudoeste 0 -- -- 95
2019-10-28 21:00:00 10.8 5 Sur 7 Sudeste 0 -- -- 93
2019-10-28 20:00:00 11.5 5 Sudoeste 22 Sudoeste 0 -- -- 90
2019-10-28 19:00:00 12.9 11 Sudoeste 19 Sudoeste 0 -- -- 85
2019-10-28 18:00:00 14.2 7 Sudoeste 22 Sudoeste 0 -- -- 81
2019-10-28 17:00:00 15.8 14 Sudoeste 27 Sudoeste 0 -- -- 76
2019-10-28 16:00:00 15.9 20 Sudoeste 30 Sudoeste 0 -- -- 75
2019-10-28 15:00:00 16.4 18 Sudoeste 36 Sudoeste 0 -- -- 74
2019-10-28 14:00:00 15.8 19 Sudoeste 31 Oeste 0 -- -- 77
2019-10-28 13:00:00 15.7 19 Sudoeste 33 Sudoeste 0 -- -- 79
2019-10-28 12:00:00 15.5 21 Sudoeste 35 Sudoeste 0 -- -- 77
2019-10-28 11:00:00 15.2 17 Sudoeste 32 Sudoeste 0 -- -- 75
2019-10-28 10:00:00 13.8 11 Sudoeste 17 Sudoeste 0 -- -- 81
2019-10-28 09:00:00 11.4 5 Sudoeste 7 Sur 0 -- -- 86
2019-10-28 08:00:00 9.9 3 Sur 9 Sudoeste 0 -- -- 87
2019-10-28 07:00:00 11 2 Sur 12 Sudoeste 0 -- -- 82
2019-10-28 06:00:00 12 3 Sudoeste 21 Sudoeste 0 -- -- 78
2019-10-28 05:00:00 12.4 10 Sudoeste 18 Sudoeste 0 -- -- 75
2019-10-28 04:00:00 13.5 7 Sudoeste 18 Sur 0 -- -- 71
2019-10-28 03:00:00 11.1 7 Sur 13 Sur 0 -- -- 83
2019-10-28 02:00:00 10.9 3 Oeste 9 Oeste 0 -- -- 84
2019-10-28 01:00:00 11.1 0 Calma 8 Noroeste 0 -- -- 83
2019-10-28 00:00:00 11.2 4 Oeste 8 Oeste 0 -- -- 80
2019-10-27 23:00:00 11.3 3 Noroeste 13 Oeste 0 -- -- 79
2019-10-27 22:00:00 11.9 9 Noroeste 10 Oeste 0 -- -- 75
2019-10-27 21:00:00 13 4 Sudoeste 9 Oeste 0 -- -- 73
2019-10-27 20:00:00 14.4 4 Noroeste 13 Norte 0 -- -- 64
2019-10-27 19:00:00 16.1 5 Sur 7 Sudeste 0 -- -- 59
2019-10-27 18:00:00 17.4 4 Sudeste 14 Oeste 0 -- -- 52
2019-10-27 17:00:00 18.8 9 Sudoeste 22 Oeste 0 -- -- 45
2019-10-27 16:00:00 19.8 12 Sudoeste 26 Sudoeste 0 -- -- 44
2019-10-27 15:00:00 20.7 8 Sudoeste 18 Sudoeste 0 -- -- 45
2019-10-27 14:00:00 21.4 6 Sudeste 12 Sur 0 -- -- 42
2019-10-27 13:00:00 19.2 4 Nordeste 7 Nordeste 0 -- -- 50
2019-10-27 12:00:00 16.7 4 Sur 6 Sur 0 -- -- 62
2019-10-27 11:00:00 13.6 0 Calma 7 Oeste 0 -- -- 70
2019-10-27 10:00:00 11.1 4 Oeste 8 Oeste 0 -- -- 83
2019-10-27 09:00:00 6 4 Noroeste 5 Oeste 0 -- -- 94
2019-10-27 08:00:00 4.9 4 Oeste 10 Oeste 0 -- -- 94
2019-10-27 07:00:00 4.9 4 Noroeste 8 Oeste 0 -- -- 95
2019-10-27 06:00:00 4.5 6 Oeste 8 Oeste 0 -- -- 95
2019-10-27 05:00:00 4.3 4 Noroeste 8 Oeste 0 -- -- 93
2019-10-27 04:00:00 5.1 3 Noroeste 8 Oeste 0 -- -- 94
2019-10-27 03:00:00 5.6 5 Oeste 8 Oeste 0 -- -- 92
2019-10-27 02:00:00 5.8 3 Noroeste 6 Oeste 0 -- -- 92
2019-10-27 01:00:00 7.8 5 Oeste 8 Oeste 0 -- -- 87
2019-10-27 00:00:00 8.5 3 Noroeste 6 Oeste 0 -- -- 84
2019-10-26 23:00:00 9.7 3 Oeste 8 Oeste 0 -- -- 79
2019-10-26 22:00:00 12 2 Sur 10 Sudoeste 0 -- -- 71
2019-10-26 21:00:00 14.3 6 Sudoeste 9 Oeste 0 -- -- 62
2019-10-26 20:00:00 16 6 Sudoeste 15 Sudoeste 0 -- -- 57
2019-10-26 19:00:00 19.2 12 Sudoeste 23 Oeste 0 -- -- 50
2019-10-26 18:00:00 20.8 13 Sudoeste 24 Sudoeste 0 -- -- 49
2019-10-26 17:00:00 21.8 13 Sudoeste 20 Sudoeste 0 -- -- 48
2019-10-26 16:00:00 21.8 9 Sudoeste 17 Sudoeste 0 -- -- 45
2019-10-26 15:00:00 21.1 10 Sudoeste 18 Sudoeste 0 -- -- 42
2019-10-26 14:00:00 20.4 10 Sudoeste 18 Sudoeste 0 -- -- 42
2019-10-26 13:00:00 18.7 4 Oeste 10 Sudoeste 0 -- -- 54
2019-10-26 12:00:00 15.3 4 Norte 9 Este 0 -- -- 69
2019-10-26 11:00:00 11.1 2 Nordeste 6 Norte 0 -- -- 82
2019-10-26 10:00:00 8.1 0 Calma 10 Oeste 0 -- -- 82
2019-10-26 09:00:00 6.2 7 Oeste 12 Sudoeste 0 -- -- 84
2019-10-26 08:00:00 6.5 9 Sudoeste 14 Oeste 0 -- -- 83
2019-10-26 07:00:00 6.5 10 Oeste 14 Sudoeste 0 -- -- 86
2019-10-26 06:00:00 6.4 7 Oeste 15 Sudoeste 0 -- -- 87
2019-10-26 05:00:00 7.3 6 Oeste 13 Sudoeste 0 -- -- 86
2019-10-26 04:00:00 7.3 8 Sudoeste 14 Sudoeste 0 -- -- 87
2019-10-26 03:00:00 6.9 9 Sudoeste 12 Sudoeste 0 -- -- 92
2019-10-26 02:00:00 6.2 6 Oeste 9 Oeste 0 -- -- 92
2019-10-26 01:00:00 6.7 4 Oeste 10 Sudoeste 0 -- -- 93
2019-10-26 00:00:00 7 7 Sudoeste 9 Oeste 0 -- -- 92
2019-10-25 23:00:00 8.6 3 Oeste 8 Oeste 0 -- -- 87
2019-10-25 22:00:00 10.3 7 Oeste 9 Sudoeste 0 -- -- 81
2019-10-25 21:00:00 12.7 0 Calma 10 Sudoeste 0 -- -- 71
2019-10-25 20:00:00 15.8 5 Sudoeste 15 Sudoeste 0 -- -- 59
2019-10-25 19:00:00 18.5 11 Oeste 17 Sudoeste 0 -- -- 53
2019-10-25 18:00:00 19.7 11 Sudoeste 23 Sudoeste 0 -- -- 50
2019-10-25 17:00:00 20.1 14 Sudoeste 24 Oeste 0 -- -- 49
2019-10-25 16:00:00 20.4 15 Sudoeste 26 Oeste 0 -- -- 46
2019-10-25 15:00:00 20.2 16 Sudoeste 24 Sudoeste 0 -- -- 45
2019-10-25 14:00:00 18.7 8 Sudoeste 19 Sudoeste 0 -- -- 51
2019-10-25 13:00:00 17 6 Sudoeste 14 Sudoeste 0 -- -- 59
2019-10-25 12:00:00 14.7 6 Sudoeste 14 Sudoeste 0 -- -- 76
2019-10-25 11:00:00 11.4 9 Sudoeste 12 Sudoeste 0 -- -- 89
2019-10-25 10:00:00 6.6 9 Sudoeste 12 Sudoeste 0 -- -- 100
2019-10-25 09:00:00 4.3 6 Oeste 13 Sudoeste 0 -- -- 100
2019-10-25 08:00:00 3.9 6 Oeste 10 Sudoeste 0 -- -- 99
2019-10-25 07:00:00 2.7 4 Oeste 7 Oeste 0 -- -- 99
2019-10-25 06:00:00 3.5 5 Noroeste 8 Oeste 0 -- -- 99
2019-10-25 05:00:00 3.9 0 Calma 6 Oeste 0 -- -- 99
2019-10-25 04:00:00 4.2 3 Noroeste 10 Oeste 0 -- -- 98
2019-10-25 03:00:00 4.9 5 Oeste 8 Sudoeste 0 -- -- 98
2019-10-25 02:00:00 5 6 Oeste 8 Sudoeste 0 -- -- 97
2019-10-25 01:00:00 5.8 3 Noroeste 8 Oeste 0 -- -- 97
2019-10-25 00:00:00 6.4 3 Oeste 7 Oeste 0 -- -- 96
2019-10-24 23:00:00 7.6 5 Oeste 7 Oeste 0 -- -- 95
2019-10-24 22:00:00 8.4 5 Oeste 10 Oeste 0 -- -- 93
2019-10-24 21:00:00 10.1 6 Oeste 7 Oeste 0 -- -- 89
2019-10-24 20:00:00 11.6 5 Noroeste 12 Noroeste 0 -- -- 83
2019-10-24 19:00:00 13.3 7 Noroeste 15 Noroeste 0 -- -- 77
2019-10-24 18:00:00 13.5 10 Norte 21 Noroeste 0 -- -- 76
2019-10-24 17:00:00 14.5 13 Noroeste 20 Noroeste 0 -- -- 73
2019-10-24 16:00:00 15.4 9 Noroeste 21 Sudoeste 0 -- -- 69
2019-10-24 15:00:00 14 13 Sudoeste 19 Sudoeste 0 -- -- 72
2019-10-24 14:00:00 12 10 Sur 19 Sur 0 -- -- 76
2019-10-24 13:00:00 10.9 11 Sudoeste 19 Sudoeste 0.2 -- -- 81
2019-10-24 12:00:00 9.4 13 Sudoeste 20 Sudoeste 0 -- -- 84
2019-10-24 11:00:00 7.4 9 Sudoeste 18 Sudoeste 0 -- -- 92
2019-10-24 10:00:00 6.8 12 Sudoeste 18 Sudoeste 0 -- -- 93
2019-10-24 09:00:00 6.6 4 Oeste 13 Sudoeste 0 -- -- 96
2019-10-24 08:00:00 6.4 10 Sudoeste 15 Sudoeste 0 -- -- 97
2019-10-24 07:00:00 6 10 Sudoeste 14 Sudoeste 0 -- -- 97
2019-10-24 06:00:00 6 8 Sudoeste 14 Oeste 0 -- -- 95
2019-10-24 05:00:00 6.7 8 Oeste 14 Oeste 0 -- -- 96
2019-10-24 04:00:00 6.9 4 Oeste 9 Oeste 0 -- -- 97
2019-10-24 03:00:00 6.9 4 Noroeste 11 Oeste 0 -- -- 95
2019-10-24 02:00:00 6.9 5 Oeste 12 Oeste 0.6 -- -- 96
2019-10-24 01:00:00 6.8 7 Oeste 14 Oeste 0.2 -- -- 95
2019-10-24 00:00:00 7 8 Oeste 16 Noroeste 0.2 -- -- 95
2019-10-23 23:00:00 7.3 5 Oeste 16 Noroeste 0.2 -- -- 95
2019-10-23 22:00:00 7.5 7 Oeste 15 Oeste 0.2 -- -- 96
2019-10-23 21:00:00 7.5 9 Oeste 22 Oeste 0 -- -- 95
2019-10-23 20:00:00 7.6 11 Oeste 21 Oeste 0.4 -- -- 95
2019-10-23 19:00:00 7.7 14 Noroeste 27 Oeste 0.4 -- -- 94
2019-10-23 18:00:00 8.1 13 Noroeste 27 Oeste 0.4 -- -- 95
2019-10-23 17:00:00 8.1 12 Noroeste 23 Noroeste 1.4 -- -- 94
2019-10-23 16:00:00 8.4 12 Noroeste 26 Noroeste 0.6 -- -- 93
2019-10-23 15:00:00 8.9 12 Noroeste 27 Noroeste 0 -- -- 89
2019-10-23 14:00:00 9 14 Noroeste 30 Noroeste 0 -- -- 90
2019-10-23 13:00:00 8.4 15 Noroeste 26 Noroeste 0 -- -- 94
2019-10-23 12:00:00 7.8 15 Noroeste 26 Noroeste 0.2 -- -- 94
2019-10-23 11:00:00 7.1 13 Noroeste 28 Noroeste 0 -- -- 94
2019-10-23 10:00:00 6.7 11 Oeste 19 Oeste 1.2 -- -- 95
2019-10-23 09:00:00 6.5 9 Oeste 18 Noroeste 2 -- -- 95
2019-10-23 08:00:00 6.4 5 Oeste 13 Noroeste 0.8 -- -- 96
2019-10-23 07:00:00 6.2 6 Oeste 14 Noroeste 1.8 -- -- 95
2019-10-23 06:00:00 6.4 7 Noroeste 18 Noroeste 2 -- -- 96
2019-10-23 05:00:00 6.4 4 Noroeste 20 Norte 0.6 -- -- 96
2019-10-23 04:00:00 6.5 14 Norte 26 Norte 0.4 -- -- 95
2019-10-23 03:00:00 6.5 10 Norte 18 Norte 1.6 -- -- 98
2019-10-23 02:00:00 6.3 4 Oeste 6 Oeste 1.4 -- -- 97
2019-10-23 01:00:00 6.3 2 Noroeste 4 Norte 0.4 -- -- 97
2019-10-23 00:00:00 6.3 2 Noroeste 10 Norte 1 -- -- 97
2019-10-22 23:00:00 6.2 9 Nordeste 31 Nordeste 1.2 -- -- 96
2019-10-22 22:00:00 6.8 19 Nordeste 27 Nordeste 0.8 -- -- 95
2019-10-22 21:00:00 6.5 3 Oeste 4 Oeste 0 -- -- 95
2019-10-22 20:00:00 6.6 3 Sudoeste 23 Nordeste 0.2 -- -- 94
2019-10-22 19:00:00 7.2 22 Nordeste 31 Nordeste 0.4 -- -- 89
2019-10-22 18:00:00 8.3 17 Nordeste 43 Nordeste 0 -- -- 88
2019-10-22 17:00:00 10.1 23 Nordeste 43 Nordeste 0 -- -- 77
2019-10-22 16:00:00 10.1 19 Nordeste 31 Nordeste 0 -- -- 77
2019-10-22 15:00:00 8.6 13 Nordeste 21 Nordeste 0 -- -- 89
2019-10-22 14:00:00 6.1 13 Nordeste 19 Nordeste 0 -- -- 100
2019-10-22 13:00:00 4.6 12 Nordeste 23 Nordeste 0 -- -- 100
2019-10-22 12:00:00 4.2 11 Nordeste 19 Nordeste 0 -- -- 99
2019-10-22 11:00:00 3.5 8 Este 15 Este 0 -- -- 99
2019-10-22 10:00:00 2.1 2 Norte 9 Noroeste 0 -- -- 100
2019-10-22 09:00:00 1.1 2 Noroeste 5 Noroeste 0 -- -- 99
2019-10-22 08:00:00 0.5 4 Nordeste 8 Nordeste 0 -- -- 99
2019-10-22 07:00:00 0.1 0 Calma 5 Nordeste 0 -- -- 98
2019-10-22 06:00:00 -0.3 4 Este 7 Oeste 0 -- -- 99
2019-10-22 05:00:00 -0.3 5 Norte 6 Norte 0 -- -- 98
2019-10-22 04:00:00 0 3 Sudoeste 9 Oeste 0 -- -- 98
2019-10-22 03:00:00 0.3 6 Oeste 10 Oeste 0 -- -- 98
2019-10-22 02:00:00 0.6 2 Noroeste 8 Norte 0 -- -- 97
2019-10-22 01:00:00 1.1 3 Norte 8 Oeste 0 -- -- 96
2019-10-22 00:00:00 1.8 3 Noroeste 8 Oeste 0 -- -- 96
2019-10-21 23:00:00 2.4 7 Noroeste 11 Noroeste 0 -- -- 95
2019-10-21 22:00:00 3.5 9 Oeste 12 Oeste 0 -- -- 92
2019-10-21 21:00:00 5 0 Calma 9 Este 0 -- -- 89
2019-10-21 20:00:00 6.1 4 Nordeste 17 Nordeste 0.2 -- -- 87
2019-10-21 19:00:00 6.5 6 Sudeste 15 Sudeste 2 -- -- 90
2019-10-21 18:00:00 6.4 9 Sur 31 Sudeste 3.8 -- -- 87
2019-10-21 17:00:00 10.5 8 Nordeste 22 Sur 0 -- -- 67
2019-10-21 16:00:00 11.3 13 Norte 27 Norte 0 -- -- 64
2019-10-21 15:00:00 14.2 8 Sudoeste 22 Sur 0 -- -- 52
2019-10-21 14:00:00 12.5 8 Sur 16 Sudoeste 0 -- -- 56
2019-10-21 13:00:00 10.8 4 Sudoeste 8 Oeste 0 -- -- 71
2019-10-21 12:00:00 8.6 3 Sur 6 Sudoeste 0 -- -- 82
2019-10-21 11:00:00 5.6 0 Calma 5 Norte 0 -- -- 97
2019-10-21 10:00:00 1.3 3 Oeste 6 Oeste 0 -- -- 99
2019-10-21 09:00:00 -0.3 4 Noroeste 7 Noroeste 0 -- -- 98
2019-10-21 08:00:00 -0.1 5 Noroeste 7 Oeste 0 -- -- 98
2019-10-21 07:00:00 0.4 6 Oeste 10 Oeste 0 -- -- 97
2019-10-21 06:00:00 1.2 5 Oeste 8 Oeste 0 -- -- 97
2019-10-21 05:00:00 1.9 6 Oeste 10 Sudoeste 0 -- -- 97
2019-10-21 04:00:00 2.3 6 Sudoeste 10 Noroeste 0 -- -- 96
2019-10-21 03:00:00 2.7 4 Sudoeste 9 Oeste 0 -- -- 95
2019-10-21 02:00:00 3.7 8 Oeste 10 Oeste 0 -- -- 94
2019-10-21 01:00:00 4.6 4 Oeste 12 Oeste 0 -- -- 92
2019-10-21 00:00:00 5.4 6 Sudoeste 8 Sudoeste 0 -- -- 89
2019-10-20 23:00:00 6.4 3 Sudeste 10 Sur 0 -- -- 86
2019-10-20 22:00:00 6.6 4 Sur 13 Sur 0 -- -- 86
2019-10-20 21:00:00 7.6 8 Sur 15 Sur 0 -- -- 81
2019-10-20 20:00:00 8.2 6 Sur 12 Sudoeste 0 -- -- 84
2019-10-20 19:00:00 9.8 0 Calma 15 Oeste 0 -- -- 73
2019-10-20 18:00:00 10.2 9 Oeste 21 Noroeste 0 -- -- 71
2019-10-20 17:00:00 9.8 14 Noroeste 22 Noroeste 0.2 -- -- 78
2019-10-20 16:00:00 9.3 4 Oeste 10 Noroeste 0.2 -- -- 78
2019-10-20 15:00:00 8.6 4 Norte 18 Nordeste 0 -- -- 79
2019-10-20 14:00:00 8 9 Norte 28 Norte 0 -- -- 83
2019-10-20 13:00:00 7.8 13 Norte 27 Noroeste 0 -- -- 86
2019-10-20 12:00:00 7.1 15 Norte 28 Norte 0 -- -- 89
2019-10-20 11:00:00 6.7 12 Noroeste 21 Noroeste 0 -- -- 93
2019-10-20 10:00:00 6.4 9 Oeste 28 Noroeste 0 -- -- 91
2019-10-20 09:00:00 6.2 13 Noroeste 23 Oeste 0 -- -- 90
2019-10-20 08:00:00 6.6 9 Oeste 20 Oeste 0.2 -- -- 92
2019-10-20 07:00:00 7 12 Noroeste 21 Oeste 0 -- -- 93
2019-10-20 06:00:00 7.6 12 Sudoeste 19 Sudoeste 0 -- -- 95
2019-10-20 05:00:00 7.8 11 Sudoeste 19 Sudoeste 0 -- -- 93
2019-10-20 04:00:00 7.9 13 Sudoeste 25 Sudoeste 0 -- -- 92
2019-10-20 03:00:00 8.1 14 Sudoeste 24 Sudoeste 0 -- -- 88
2019-10-20 02:00:00 8.2 13 Sudoeste 35 Oeste 0 -- -- 87
2019-10-20 01:00:00 8.6 23 Oeste 34 Oeste 0 -- -- 86
2019-10-20 00:00:00 8.8 6 Sudoeste 22 Oeste 0.2 -- -- 92
2019-10-19 23:00:00 9.7 10 Oeste 36 Oeste 0.4 -- -- 91
2019-10-19 22:00:00 11.7 20 Sudoeste 40 Sudoeste 0.4 -- -- 92
2019-10-19 21:00:00 12.3 28 Sudoeste 62 Sudoeste 0 -- -- 90
2019-10-19 20:00:00 12.2 14 Sudoeste 33 Sudoeste 0.2 -- -- 90
2019-10-19 19:00:00 12.3 9 Sudoeste 22 Sur 0.6 -- -- 88
2019-10-19 18:00:00 12 18 Sudoeste 51 Sudoeste 0.4 -- -- 89
2019-10-19 17:00:00 13.5 29 Sudoeste 63 Sudoeste 0 -- -- 79
2019-10-19 16:00:00 13.5 31 Sudoeste 59 Sudoeste 0 -- -- 80
2019-10-19 15:00:00 14.2 39 Sudoeste 59 Sudoeste 0 -- -- 73
2019-10-19 14:00:00 13.7 33 Sudoeste 53 Sudoeste 0 -- -- 74
2019-10-19 13:00:00 12.9 22 Sudoeste 59 Sudoeste 0 -- -- 77
2019-10-19 12:00:00 13.2 27 Sudoeste 45 Sur 0 -- -- 74
2019-10-19 11:00:00 11.8 31 Sudoeste 54 Sudoeste 0 -- -- 77
2019-10-19 10:00:00 10.4 19 Sudoeste 47 Sudoeste 0 -- -- 85
2019-10-19 09:00:00 9.8 28 Sudoeste 43 Sudoeste 0 -- -- 85
2019-10-19 08:00:00 9.6 25 Sudoeste 41 Sur 0 -- -- 86
2019-10-19 07:00:00 9.4 15 Sudoeste 25 Sur 0 -- -- 88
2019-10-19 06:00:00 9.6 10 Sudoeste 33 Sudoeste 0 -- -- 88
2019-10-19 05:00:00 10.3 21 Sudoeste 34 Sudoeste 0 -- -- 87
2019-10-19 04:00:00 10.6 19 Sudoeste 32 Oeste 0 -- -- 87
2019-10-19 03:00:00 10.7 10 Sudoeste 22 Sudoeste 0 -- -- 89
2019-10-19 02:00:00 10.7 16 Sudoeste 31 Sudoeste 0 -- -- 86
2019-10-19 01:00:00 11.1 15 Sudoeste 24 Sudoeste 0 -- -- 85
2019-10-19 00:00:00 11.2 13 Sudoeste 28 Sudoeste 0 -- -- 86
2019-10-18 23:00:00 11.9 13 Sudoeste 19 Sudoeste 0 -- -- 84
2019-10-18 22:00:00 12.1 7 Oeste 18 Sudoeste 0 -- -- 82
2019-10-18 21:00:00 12.6 14 Sudoeste 26 Oeste 0 -- -- 79
2019-10-18 20:00:00 13.6 14 Sudoeste 38 Oeste 0 -- -- 74
2019-10-18 19:00:00 16 22 Sudoeste 40 Sudoeste 0 -- -- 66
2019-10-18 18:00:00 16.4 24 Sudoeste 38 Sudoeste 0 -- -- 65
2019-10-18 17:00:00 16.4 21 Oeste 36 Sudoeste 0 -- -- 71
2019-10-18 16:00:00 16.9 18 Sudoeste 43 Sudoeste 0 -- -- 73
2019-10-18 15:00:00 17.2 26 Sudoeste 39 Oeste 0 -- -- 70
2019-10-18 14:00:00 15.7 14 Oeste 23 Oeste 0 -- -- 83
2019-10-18 13:00:00 12.9 9 Noroeste 21 Noroeste 0 -- -- 92
2019-10-18 12:00:00 13.7 11 Noroeste 22 Noroeste 0 -- -- 90
2019-10-18 11:00:00 14 9 Oeste 17 Oeste 0 -- -- 94
2019-10-18 10:00:00 13.4 10 Oeste 30 Sudoeste 0 -- -- 94
2019-10-18 09:00:00 13.6 15 Sudoeste 23 Sudoeste 0 -- -- 94
2019-10-18 08:00:00 13.7 16 Sudoeste 36 Sudoeste 0 -- -- 94
2019-10-18 07:00:00 14.2 23 Oeste 41 Sudoeste 0 -- -- 95
2019-10-18 06:00:00 14.5 21 Sudoeste 36 Sudoeste 0.2 -- -- 97
2019-10-18 05:00:00 14.4 18 Sudoeste 39 Sudoeste 0 -- -- 97
2019-10-18 04:00:00 14.4 21 Sudoeste 44 Sudoeste 0.2 -- -- 97
2019-10-18 03:00:00 14.5 26 Sudoeste 42 Sudoeste 0.2 -- -- 96
2019-10-18 02:00:00 14.6 25 Sudoeste 40 Sudoeste 0 -- -- 95
2019-10-18 01:00:00 14.6 21 Sudoeste 32 Sudoeste 0 -- -- 97
2019-10-18 00:00:00 14.5 21 Sudoeste 42 Sudoeste 0 -- -- 96
2019-10-17 23:00:00 14.4 22 Sudoeste 45 Sudoeste 1 -- -- 96
2019-10-17 22:00:00 14.4 24 Sudoeste 43 Sudoeste 0 -- -- 96
2019-10-17 21:00:00 14.2 20 Sudoeste 35 Sudoeste 0.2 -- -- 96
2019-10-17 20:00:00 13.7 20 Sudoeste 30 Sudoeste 0 -- -- 95
2019-10-17 19:00:00 13.8 20 Sudoeste 31 Sudoeste 0 -- -- 94
2019-10-17 18:00:00 14.3 18 Sudoeste 41 Sudoeste 0 -- -- 93
2019-10-17 17:00:00 14.9 26 Sudoeste 40 Sudoeste 0 -- -- 86
2019-10-17 16:00:00 16.3 24 Sudoeste 42 Sudoeste 0 -- -- 79
2019-10-17 15:00:00 16 27 Sudoeste 45 Sudoeste 0 -- -- 80
2019-10-17 14:00:00 14.8 26 Sudoeste 40 Sudoeste 0 -- -- 85
2019-10-17 13:00:00 14.4 22 Sudoeste 46 Sudoeste 0 -- -- 87
2019-10-17 12:00:00 13.5 24 Sudoeste 46 Sudoeste 0 -- -- 92
2019-10-17 11:00:00 11.9 25 Sudoeste 40 Sudoeste 0 -- -- 96
2019-10-17 10:00:00 11.7 24 Sudoeste 44 Sudoeste 0 -- -- 96
2019-10-17 09:00:00 11.4 24 Sudoeste 38 Sudoeste 0.2 -- -- 96
2019-10-17 08:00:00 10.9 19 Sudoeste 38 Sudoeste 0.8 -- -- 95
2019-10-17 07:00:00 10.7 26 Sudoeste 46 Sudoeste 0.8 -- -- 94
2019-10-17 06:00:00 10.9 30 Sudoeste 48 Sudoeste 0.6 -- -- 92
2019-10-17 05:00:00 11.5 28 Sudoeste 50 Sudoeste 0 -- -- 85
2019-10-17 04:00:00 11.5 29 Sudoeste 46 Sudoeste 0.4 -- -- 84
2019-10-17 03:00:00 12.2 30 Sudoeste 46 Sudoeste 0 -- -- 77
2019-10-17 02:00:00 12.2 19 Sudoeste 38 Sudoeste 0 -- -- 75
2019-10-17 01:00:00 12.4 18 Sudoeste 32 Sudoeste 0 -- -- 74
2019-10-17 00:00:00 12.6 16 Sudoeste 39 Sudoeste 0 -- -- 71
2019-10-16 23:00:00 12.9 26 Sudoeste 42 Sudoeste 0 -- -- 68
2019-10-16 22:00:00 12.6 19 Sudoeste 31 Sudoeste 0 -- -- 69
2019-10-16 21:00:00 11.6 13 Sudoeste 31 Sudoeste 0 -- -- 72
2019-10-16 20:00:00 12.2 20 Sudoeste 44 Sudoeste 0 -- -- 69
2019-10-16 19:00:00 13.5 26 Sudoeste 47 Sudoeste 0 -- -- 64
2019-10-16 18:00:00 14.5 26 Sudoeste 42 Sudoeste 0 -- -- 61
2019-10-16 17:00:00 15.2 25 Sudoeste 40 Sudoeste 0 -- -- 58
2019-10-16 16:00:00 15.1 23 Sudoeste 42 Sudoeste 0 -- -- 57
2019-10-16 15:00:00 14.5 26 Sudoeste 52 Sudoeste 0 -- -- 58
2019-10-16 14:00:00 13.7 30 Sudoeste 48 Sudoeste 0 -- -- 63
2019-10-16 13:00:00 13.3 28 Sudoeste 43 Sudoeste 0 -- -- 59
2019-10-16 12:00:00 12.5 23 Sudoeste 37 Sudoeste 0 -- -- 66
2019-10-16 11:00:00 10.3 15 Sudoeste 23 Sudoeste 0 -- -- 81
2019-10-16 10:00:00 7.5 8 Sudoeste 11 Sudoeste 0 -- -- 93
2019-10-16 09:00:00 6.1 0 Calma 9 Sudoeste 0 -- -- 92
2019-10-16 08:00:00 6 5 Sudoeste 10 Sudoeste 0 -- -- 92
2019-10-16 07:00:00 6.5 4 Sur 18 Oeste 0 -- -- 88
2019-10-16 06:00:00 7.7 14 Sudoeste 22 Sudoeste 0 -- -- 86
2019-10-16 05:00:00 6.8 12 Sudoeste 15 Sudoeste 0 -- -- 89
2019-10-16 04:00:00 7.9 5 Sudoeste 18 Sudoeste 0 -- -- 84
2019-10-16 03:00:00 8.6 11 Sudoeste 17 Sudoeste 0 -- -- 83
2019-10-16 02:00:00 8.3 5 Sur 8 Sudoeste 0 -- -- 83
2019-10-16 01:00:00 8.7 6 Sudoeste 12 Sudoeste 0 -- -- 81
2019-10-16 00:00:00 9.4 8 Sudoeste 19 Sudoeste 0 -- -- 77
2019-10-15 23:00:00 10 13 Sudoeste 19 Sudoeste 0 -- -- 74
2019-10-15 22:00:00 9.4 9 Sudoeste 17 Sur 0 -- -- 78
2019-10-15 21:00:00 9.5 12 Sudoeste 19 Sudoeste 0 -- -- 77
2019-10-15 20:00:00 10.4 11 Sudoeste 26 Sudoeste 0 -- -- 73
2019-10-15 19:00:00 13.1 17 Sudoeste 25 Sudoeste 0 -- -- 58
2019-10-15 18:00:00 13.1 14 Sudoeste 23 Sudoeste 0 -- -- 56
2019-10-15 17:00:00 13.4 12 Oeste 24 Oeste 0 -- -- 54
2019-10-15 16:00:00 13.4 9 Oeste 25 Oeste 0 -- -- 56
2019-10-15 15:00:00 13.9 10 Oeste 31 Oeste 0 -- -- 54
2019-10-15 14:00:00 13.3 12 Oeste 19 Oeste 0 -- -- 55
2019-10-15 13:00:00 12 8 Sudoeste 21 Sudoeste 0 -- -- 60
2019-10-15 12:00:00 10.8 8 Sur 17 Sudoeste 0 -- -- 73
2019-10-15 11:00:00 8.9 8 Sur 12 Sur 0 -- -- 82
2019-10-15 10:00:00 5.5 5 Sudoeste 15 Sudoeste 0 -- -- 92
2019-10-15 09:00:00 3.1 7 Sudoeste 9 Sudoeste 0 -- -- 95
2019-10-15 08:00:00 3 7 Oeste 12 Sudoeste 0 -- -- 94
2019-10-15 07:00:00 3.7 6 Sudoeste 14 Sudoeste 0 -- -- 92
2019-10-15 06:00:00 4.1 11 Sudoeste 17 Sudoeste 0 -- -- 90
2019-10-15 05:00:00 4.9 4 Sudoeste 20 Sudoeste 0 -- -- 90
2019-10-15 04:00:00 4.7 11 Sudoeste 18 Sudoeste 0 -- -- 91
2019-10-15 03:00:00 5.2 9 Sudoeste 21 Sudoeste 0 -- -- 87
2019-10-15 02:00:00 5 8 Sudoeste 18 Sudoeste 0 -- -- 88
2019-10-15 01:00:00 5.5 13 Sudoeste 22 Sudoeste 0 -- -- 87
2019-10-15 00:00:00 5.6 7 Sudoeste 16 Sudoeste 0 -- -- 87
2019-10-14 23:00:00 6.1 4 Sur 17 Oeste 0 -- -- 85
2019-10-14 22:00:00 7 9 Oeste 28 Oeste 0 -- -- 82
2019-10-14 21:00:00 8.2 15 Sudoeste 30 Sudoeste 0 -- -- 81
2019-10-14 20:00:00 8.6 12 Sudoeste 26 Oeste 0 -- -- 83
2019-10-14 19:00:00 9.9 17 Oeste 32 Sudoeste 0 -- -- 82
2019-10-14 18:00:00 10 11 Sudoeste 44 Oeste 0.6 -- -- 86
2019-10-14 17:00:00 9.8 24 Sudoeste 37 Sudoeste 0.4 -- -- 90
2019-10-14 16:00:00 9.3 14 Sudoeste 35 Sudoeste 6.8 -- -- 92
2019-10-14 15:00:00 10.1 20 Sudoeste 40 Sudoeste 0.8 -- -- 91
2019-10-14 14:00:00 11.7 26 Sudoeste 77 Sudoeste 0 -- -- 79
2019-10-14 13:00:00 13.6 37 Sudoeste 59 Sudoeste 0 -- -- 68
2019-10-14 12:00:00 12.4 38 Sudoeste 59 Sudoeste 0 -- -- 73
2019-10-14 11:00:00 11 24 Sudoeste 41 Sudoeste 0 -- -- 87
2019-10-14 10:00:00 9.9 4 Sur 29 Oeste 0.6 -- -- 92
2019-10-14 09:00:00 10.8 22 Oeste 50 Sudoeste 1 -- -- 86
2019-10-14 08:00:00 12.7 30 Sudoeste 55 Sudoeste 0 -- -- 83
2019-10-14 07:00:00 12.9 30 Sudoeste 48 Sudoeste 0 -- -- 86
2019-10-14 06:00:00 12.6 13 Sudoeste 33 Sudoeste 0 -- -- 84
2019-10-14 05:00:00 11.8 12 Sudoeste 18 Sudoeste 0 -- -- 81
2019-10-14 04:00:00 10.7 5 Oeste 10 Oeste 0 -- -- 79
2019-10-14 03:00:00 11.3 5 Sudoeste 12 Sudoeste 0 -- -- 77
2019-10-14 02:00:00 11 9 Oeste 13 Oeste 0 -- -- 79
2019-10-14 01:00:00 11.7 8 Sudoeste 10 Sudoeste 0 -- -- 75
2019-10-14 00:00:00 12.1 4 Sudoeste 13 Sudoeste 0 -- -- 72